createdAt,value
2018-08-04T00:00:13.311Z,31.8
2018-08-04T00:01:14.608Z,32.3
2018-08-04T00:02:16.045Z,31.3
2018-08-04T00:03:17.318Z,31.8
2018-08-04T00:04:18.778Z,31.3
2018-08-04T00:05:20.387Z,31.3
2018-08-04T00:06:21.819Z,31.3
2018-08-04T00:07:23.428Z,31.8
2018-08-04T00:08:24.716Z,31.3
2018-08-04T00:09:26.318Z,31.8
2018-08-04T00:10:27.617Z,31.3
2018-08-04T00:11:29.248Z,31.3
2018-08-04T00:12:30.833Z,31.3
2018-08-04T00:13:32.112Z,31.8
2018-08-04T00:14:33.568Z,31.3
2018-08-04T00:15:35.177Z,31.8
2018-08-04T00:16:36.778Z,31.3
2018-08-04T00:17:38.065Z,30.8
2018-08-04T00:18:39.501Z,31.8
2018-08-04T00:19:40.951Z,30.8
2018-08-04T00:20:42.562Z,30.3
2018-08-04T00:21:44.168Z,31.3
2018-08-04T00:22:45.774Z,31.3
2018-08-04T00:23:47.389Z,31.3
2018-08-04T00:24:48.980Z,31.3
2018-08-04T00:25:50.645Z,30.8
2018-08-04T00:26:52.085Z,30.3
2018-08-04T00:27:53.530Z,31.3
2018-08-04T00:28:54.469Z,30.8
2018-08-04T00:29:55.765Z,31.3
2018-08-04T00:30:57.377Z,30.8
2018-08-04T00:31:58.990Z,30.8
2018-08-04T00:33:00.597Z,30.8
2018-08-04T00:34:01.895Z,30.8
2018-08-04T00:35:03.515Z,30.8
2018-08-04T00:36:05.128Z,31.3
2018-08-04T00:37:06.751Z,31.3
2018-08-04T00:38:08.195Z,30.8
2018-08-04T00:39:09.780Z,30.8
2018-08-04T00:40:11.210Z,30.8
2018-08-04T00:41:12.649Z,31.3
2018-08-04T00:42:14.081Z,30.8
2018-08-04T00:43:15.695Z,30.3
2018-08-04T00:44:17.298Z,30.8
2018-08-04T00:45:18.902Z,30.8
2018-08-04T00:46:20.499Z,30.8
2018-08-04T00:47:21.784Z,30.8
2018-08-04T00:48:23.437Z,30.8
2018-08-04T00:49:25.043Z,30.8
2018-08-04T00:50:26.667Z,31.3
2018-08-04T00:51:28.271Z,30.8
2018-08-04T00:52:29.521Z,30.8
2018-08-04T00:53:30.947Z,30.3
2018-08-04T00:54:32.372Z,31.3
2018-08-04T00:55:33.800Z,30.8
2018-08-04T00:56:35.414Z,30.3
2018-08-04T00:57:36.861Z,30.3
2018-08-04T00:58:38.342Z,30.8
2018-08-04T00:59:39.965Z,30.8
2018-08-04T01:00:41.568Z,30.3
2018-08-04T01:01:43.016Z,30.3
2018-08-04T01:02:44.626Z,30.8
2018-08-04T01:03:45.912Z,30.8
2018-08-04T01:04:47.523Z,31.3
2018-08-04T01:05:48.961Z,30.8
2018-08-04T01:06:50.400Z,30.8
2018-08-04T01:07:52.000Z,30.3
2018-08-04T01:08:53.599Z,30.8
2018-08-04T01:09:54.695Z,31.3
2018-08-04T01:10:56.315Z,31.3
2018-08-04T01:11:57.906Z,30.3
2018-08-04T01:12:59.532Z,30.8
2018-08-04T01:14:01.144Z,30.3
2018-08-04T01:15:02.611Z,31.3
2018-08-04T01:16:04.218Z,30.8
2018-08-04T01:17:05.830Z,30.3
2018-08-04T01:18:07.451Z,30.3
2018-08-04T01:19:08.909Z,30.3
2018-08-04T01:20:10.511Z,30.3
2018-08-04T01:21:12.119Z,30.3
2018-08-04T01:22:13.725Z,30.8
2018-08-04T01:23:15.335Z,30.3
2018-08-04T01:24:16.934Z,30.8
2018-08-04T01:25:18.557Z,30.3
2018-08-04T01:26:19.823Z,30.8
2018-08-04T01:27:21.443Z,30.8
2018-08-04T01:28:22.870Z,30.8
2018-08-04T01:29:24.457Z,30.8
2018-08-04T01:30:25.887Z,30.8
2018-08-04T01:31:27.164Z,31.8
2018-08-04T01:32:28.745Z,30.3
2018-08-04T01:33:30.173Z,31.3
2018-08-04T01:34:31.433Z,31.3
2018-08-04T01:35:33.043Z,31.8
2018-08-04T01:36:34.705Z,31.8
2018-08-04T01:37:36.333Z,31.8
2018-08-04T01:38:37.948Z,31.3
2018-08-04T01:39:39.575Z,32.3
2018-08-04T01:40:40.722Z,31.8
2018-08-04T01:41:42.153Z,31.3
2018-08-04T01:42:43.588Z,31.8
2018-08-04T01:43:45.027Z,31.8
2018-08-04T01:44:46.633Z,32.3
2018-08-04T01:45:48.067Z,31.8
2018-08-04T01:46:49.335Z,32.3
2018-08-04T01:47:50.924Z,32.3
2018-08-04T01:48:52.352Z,32.3
2018-08-04T01:49:53.937Z,32.3
2018-08-04T01:50:55.567Z,31.8
2018-08-04T01:51:57.183Z,32.3
2018-08-04T01:52:58.795Z,32.7
2018-08-04T01:54:00.046Z,32.7
2018-08-04T01:55:01.677Z,32.7
2018-08-04T01:56:03.120Z,32.3
2018-08-04T01:57:04.569Z,32.7
2018-08-04T01:58:06.016Z,32.7
2018-08-04T01:59:07.640Z,32.3
2018-08-04T02:00:09.217Z,32.7
2018-08-04T02:01:10.827Z,32.3
2018-08-04T02:02:12.251Z,33.2
2018-08-04T02:03:13.706Z,32.3
2018-08-04T02:04:15.309Z,32.7
2018-08-04T02:05:16.955Z,32.7
2018-08-04T02:06:18.556Z,32.7
2018-08-04T02:07:20.573Z,33.2
2018-08-04T02:08:22.318Z,33.2
2018-08-04T02:09:23.735Z,32.7
2018-08-04T02:10:25.177Z,32.7
2018-08-04T02:11:26.636Z,33.2
2018-08-04T02:12:28.234Z,33.2
2018-08-04T02:13:29.510Z,32.3
2018-08-04T02:14:31.115Z,32.3
2018-08-04T02:15:32.557Z,32.3
2018-08-04T02:16:33.996Z,32.7
2018-08-04T02:17:35.445Z,32.7
2018-08-04T02:18:37.050Z,31.8
2018-08-04T02:19:38.656Z,32.3
2018-08-04T02:20:40.256Z,32.7
2018-08-04T02:21:41.697Z,32.7
2018-08-04T02:22:42.979Z,33.2
2018-08-04T02:23:44.568Z,33.2
2018-08-04T02:24:45.993Z,32.7
2018-08-04T02:25:47.616Z,32.3
2018-08-04T02:26:49.055Z,32.7
2018-08-04T02:27:50.354Z,32.3
2018-08-04T02:28:51.957Z,32.7
2018-08-04T02:29:53.569Z,32.7
2018-08-04T02:30:55.040Z,31.8
2018-08-04T02:31:56.652Z,32.7
2018-08-04T02:32:58.127Z,32.3
2018-08-04T02:33:59.420Z,32.7
2018-08-04T02:35:01.023Z,32.3
2018-08-04T02:36:02.669Z,32.7
2018-08-04T02:37:04.336Z,32.3
2018-08-04T02:38:05.938Z,32.3
2018-08-04T02:39:07.395Z,32.3
2018-08-04T02:40:08.670Z,32.7
2018-08-04T02:41:10.293Z,32.3
2018-08-04T02:42:11.756Z,33.2
2018-08-04T02:43:13.223Z,32.3
2018-08-04T02:44:14.662Z,32.3
2018-08-04T02:45:15.940Z,32.7
2018-08-04T02:46:17.207Z,32.7
2018-08-04T02:47:18.846Z,32.7
2018-08-04T02:48:20.481Z,32.3
2018-08-04T02:49:22.097Z,32.7
2018-08-04T02:50:23.737Z,32.7
2018-08-04T02:51:25.369Z,33.2
2018-08-04T02:52:26.808Z,32.3
2018-08-04T02:53:28.418Z,31.3
2018-08-04T02:54:30.017Z,32.7
2018-08-04T02:55:31.470Z,32.7
2018-08-04T02:56:32.887Z,32.7
2018-08-04T02:57:34.506Z,32.3
2018-08-04T02:58:35.985Z,33.2
2018-08-04T02:59:37.583Z,32.3
2018-08-04T03:00:39.226Z,32.3
2018-08-04T03:01:40.693Z,32.3
2018-08-04T03:02:42.299Z,32.3
2018-08-04T03:03:43.739Z,31.8
2018-08-04T03:04:45.386Z,32.3
2018-08-04T03:05:47.003Z,31.8
2018-08-04T03:06:48.614Z,32.3
2018-08-04T03:07:50.214Z,32.3
2018-08-04T03:08:51.846Z,32.3
2018-08-04T03:09:53.159Z,31.8
2018-08-04T03:10:54.651Z,32.3
2018-08-04T03:11:56.329Z,31.8
2018-08-04T03:12:57.935Z,32.3
2018-08-04T03:13:59.553Z,31.8
2018-08-04T03:15:01.014Z,32.3
2018-08-04T03:16:02.632Z,31.3
2018-08-04T03:17:04.101Z,31.8
2018-08-04T03:18:05.558Z,31.8
2018-08-04T03:19:07.036Z,31.8
2018-08-04T03:20:08.295Z,31.8
2018-08-04T03:21:09.925Z,31.8
2018-08-04T03:22:11.538Z,31.3
2018-08-04T03:23:12.972Z,31.8
2018-08-04T03:24:14.575Z,31.8
2018-08-04T03:25:16.012Z,31.3
2018-08-04T03:26:17.468Z,31.8
2018-08-04T03:27:18.924Z,31.8
2018-08-04T03:28:20.421Z,31.8
2018-08-04T03:29:21.852Z,31.8
2018-08-04T03:30:23.466Z,31.8
2018-08-04T03:31:24.596Z,31.8
2018-08-04T03:32:26.230Z,31.3
2018-08-04T03:33:27.661Z,31.3
2018-08-04T03:34:29.094Z,31.3
2018-08-04T03:35:30.704Z,31.3
2018-08-04T03:36:32.126Z,31.8
2018-08-04T03:37:33.736Z,31.3
2018-08-04T03:38:35.175Z,32.3
2018-08-04T03:39:36.607Z,32.3
2018-08-04T03:40:38.202Z,31.8
2018-08-04T03:41:39.808Z,31.8
2018-08-04T03:42:40.982Z,32.3
2018-08-04T03:43:42.427Z,32.3
2018-08-04T03:44:44.030Z,32.3
2018-08-04T03:45:45.665Z,32.3
2018-08-04T03:46:47.265Z,32.3
2018-08-04T03:47:48.695Z,32.3
2018-08-04T03:48:50.127Z,31.8
2018-08-04T03:49:51.723Z,31.8
2018-08-04T03:50:53.178Z,32.7
2018-08-04T03:51:54.798Z,32.7
2018-08-04T03:52:56.403Z,32.3
2018-08-04T03:53:58.003Z,32.3
2018-08-04T03:54:59.463Z,32.3
2018-08-04T03:56:00.900Z,32.7
2018-08-04T03:57:02.512Z,32.3
2018-08-04T03:58:04.110Z,33.2
2018-08-04T03:59:05.542Z,32.7
2018-08-04T04:00:07.150Z,33.2
2018-08-04T04:01:08.769Z,32.3
2018-08-04T04:02:10.378Z,33.2
2018-08-04T04:03:11.982Z,32.3
2018-08-04T04:04:13.077Z,33.2
2018-08-04T04:05:14.335Z,33.2
2018-08-04T04:06:15.918Z,32.7
2018-08-04T04:07:17.360Z,32.7
2018-08-04T04:08:18.807Z,32.7
2018-08-04T04:09:20.245Z,32.7
2018-08-04T04:10:21.705Z,32.7
2018-08-04T04:11:23.294Z,33.2
2018-08-04T04:12:24.942Z,32.7
2018-08-04T04:13:26.379Z,32.7
2018-08-04T04:14:27.980Z,33.2
2018-08-04T04:15:29.265Z,32.7
2018-08-04T04:16:30.713Z,32.7
2018-08-04T04:17:32.148Z,32.3
2018-08-04T04:18:33.596Z,33.2
2018-08-04T04:19:35.027Z,33.2
2018-08-04T04:20:36.464Z,32.7
2018-08-04T04:21:38.057Z,32.7
2018-08-04T04:22:39.514Z,33.2
2018-08-04T04:23:41.117Z,33.2
2018-08-04T04:24:42.726Z,33.2
2018-08-04T04:25:44.197Z,32.3
2018-08-04T04:26:45.627Z,32.7
2018-08-04T04:27:47.247Z,32.7
2018-08-04T04:28:48.845Z,33.2
2018-08-04T04:29:50.472Z,33.7
2018-08-04T04:30:52.089Z,32.7
2018-08-04T04:31:53.690Z,32.7
2018-08-04T04:32:55.296Z,32.7
2018-08-04T04:33:56.929Z,32.7
2018-08-04T04:34:58.367Z,33.2
2018-08-04T04:35:59.801Z,33.2
2018-08-04T04:37:01.883Z,33.2
2018-08-04T04:38:03.403Z,33.2
2018-08-04T04:39:05.009Z,32.7
2018-08-04T04:40:06.614Z,32.7
2018-08-04T04:41:08.211Z,32.7
2018-08-04T04:42:10.213Z,32.7
2018-08-04T04:43:11.679Z,32.7
2018-08-04T04:44:13.452Z,32.7
2018-08-04T04:45:15.077Z,32.7
2018-08-04T04:46:16.773Z,32.3
2018-08-04T04:47:18.198Z,32.7
2018-08-04T04:48:19.823Z,32.7
2018-08-04T04:49:21.563Z,32.7
2018-08-04T04:50:22.993Z,32.7
2018-08-04T04:51:25.070Z,33.2
2018-08-04T04:52:26.696Z,32.3
2018-08-04T04:53:28.132Z,32.7
2018-08-04T04:54:29.738Z,32.3
2018-08-04T04:55:31.681Z,33.2
2018-08-04T04:56:33.287Z,32.7
2018-08-04T04:57:34.904Z,32.3
2018-08-04T04:58:36.504Z,32.3
2018-08-04T04:59:38.140Z,32.7
2018-08-04T05:00:39.600Z,31.8
2018-08-04T05:01:41.264Z,32.3
2018-08-04T05:02:44.770Z,32.3
2018-08-04T05:03:46.231Z,32.3
2018-08-04T05:04:48.150Z,32.7
2018-08-04T05:05:49.780Z,32.3
2018-08-04T05:06:51.248Z,32.7
2018-08-04T05:07:52.924Z,32.3
2018-08-04T05:08:54.394Z,32.3
2018-08-04T05:09:56.322Z,32.3
2018-08-04T05:10:57.901Z,32.3
2018-08-04T05:11:59.348Z,32.7
2018-08-04T05:13:00.984Z,32.3
2018-08-04T05:14:02.625Z,32.3
2018-08-04T05:15:04.254Z,32.3
2018-08-04T05:16:05.888Z,32.7
2018-08-04T05:17:07.496Z,32.3
2018-08-04T05:18:08.928Z,31.8
2018-08-04T05:19:10.543Z,32.3
2018-08-04T05:20:12.141Z,32.3
2018-08-04T05:21:13.737Z,32.3
2018-08-04T05:22:15.363Z,32.3
2018-08-04T05:23:17.062Z,32.3
2018-08-04T05:24:18.722Z,32.3
2018-08-04T05:25:20.374Z,32.7
2018-08-04T05:26:21.820Z,31.8
2018-08-04T05:27:23.063Z,32.3
2018-08-04T05:28:24.510Z,31.8
2018-08-04T05:29:25.948Z,32.7
2018-08-04T05:30:27.219Z,31.8
2018-08-04T05:31:28.842Z,31.3
2018-08-04T05:32:30.271Z,31.8
2018-08-04T05:33:31.704Z,31.3
2018-08-04T05:34:33.297Z,31.8
2018-08-04T05:35:34.876Z,32.3
2018-08-04T05:36:36.213Z,31.8
2018-08-04T05:37:37.883Z,32.7
2018-08-04T05:38:39.193Z,31.3
2018-08-04T05:39:40.841Z,31.3
2018-08-04T05:40:42.432Z,31.3
2018-08-04T05:41:43.896Z,32.3
2018-08-04T05:42:45.747Z,31.8
2018-08-04T05:43:47.257Z,31.8
2018-08-04T05:44:48.878Z,32.3
2018-08-04T05:45:50.477Z,32.3
2018-08-04T05:46:52.076Z,32.3
2018-08-04T05:47:53.691Z,32.3
2018-08-04T05:48:55.318Z,31.8
2018-08-04T05:49:57.073Z,31.8
2018-08-04T05:50:58.800Z,31.3
2018-08-04T05:52:00.238Z,32.3
2018-08-04T05:53:01.844Z,31.8
2018-08-04T05:54:03.308Z,32.3
2018-08-04T05:55:04.752Z,32.3
2018-08-04T05:56:06.365Z,32.3
2018-08-04T05:57:07.629Z,32.3
2018-08-04T05:58:08.737Z,32.3
2018-08-04T05:59:10.018Z,32.7
2018-08-04T06:00:11.834Z,32.7
2018-08-04T06:01:13.347Z,32.3
2018-08-04T06:02:14.806Z,32.7
2018-08-04T06:03:16.778Z,32.3
2018-08-04T06:04:18.150Z,33.2
2018-08-04T06:05:19.753Z,33.2
2018-08-04T06:06:21.195Z,32.7
2018-08-04T06:07:22.638Z,33.2
2018-08-04T06:08:24.245Z,33.2
2018-08-04T06:09:25.687Z,33.2
2018-08-04T06:10:27.115Z,33.2
2018-08-04T06:11:28.584Z,33.2
2018-08-04T06:12:30.023Z,32.7
2018-08-04T06:13:31.481Z,32.7
2018-08-04T06:14:33.088Z,32.7
2018-08-04T06:15:34.551Z,32.7
2018-08-04T06:16:36.139Z,33.2
2018-08-04T06:17:37.741Z,33.2
2018-08-04T06:18:39.008Z,33.2
2018-08-04T06:19:40.619Z,33.7
2018-08-04T06:20:42.079Z,33.2
2018-08-04T06:21:43.531Z,33.2
2018-08-04T06:22:45.148Z,32.3
2018-08-04T06:23:47.055Z,32.7
2018-08-04T06:24:48.704Z,32.7
2018-08-04T06:25:50.142Z,33.2
2018-08-04T06:26:51.629Z,33.2
2018-08-04T06:27:53.245Z,32.7
2018-08-04T06:28:54.516Z,32.7
2018-08-04T06:29:56.119Z,33.7
2018-08-04T06:30:57.716Z,33.2
2018-08-04T06:31:59.182Z,33.2
2018-08-04T06:33:00.787Z,32.7
2018-08-04T06:34:02.377Z,33.2
2018-08-04T06:35:03.657Z,33.7
2018-08-04T06:36:05.148Z,33.2
2018-08-04T06:37:06.623Z,33.2
2018-08-04T06:38:08.225Z,33.2
2018-08-04T06:39:09.847Z,33.2
2018-08-04T06:40:11.306Z,32.7
2018-08-04T06:41:12.944Z,33.7
2018-08-04T06:42:14.561Z,32.7
2018-08-04T06:43:16.154Z,33.2
2018-08-04T06:44:17.623Z,33.2
2018-08-04T06:45:19.242Z,32.7
2018-08-04T06:46:20.854Z,32.3
2018-08-04T06:47:22.487Z,32.7
2018-08-04T06:48:24.154Z,33.2
2018-08-04T06:49:25.792Z,32.7
2018-08-04T06:50:27.402Z,32.7
2018-08-04T06:51:28.827Z,33.2
2018-08-04T06:52:30.435Z,33.2
2018-08-04T06:53:31.888Z,33.2
2018-08-04T06:54:33.525Z,33.2
2018-08-04T06:55:35.158Z,33.2
2018-08-04T06:56:36.637Z,32.7
2018-08-04T06:57:38.069Z,32.7
2018-08-04T06:58:39.748Z,32.3
2018-08-04T06:59:41.371Z,33.2
2018-08-04T07:00:42.630Z,32.7
2018-08-04T07:01:44.267Z,33.2
2018-08-04T07:02:45.703Z,33.2
2018-08-04T07:03:47.312Z,33.2
2018-08-04T07:04:48.931Z,32.3
2018-08-04T07:05:50.586Z,33.2
2018-08-04T07:06:52.581Z,32.7
2018-08-04T07:07:54.045Z,32.7
2018-08-04T07:08:55.656Z,33.7
2018-08-04T07:09:56.931Z,32.7
2018-08-04T07:10:58.538Z,33.2
2018-08-04T07:12:00.139Z,32.7
2018-08-04T07:13:01.745Z,32.7
2018-08-04T07:14:03.149Z,33.2
2018-08-04T07:15:04.447Z,33.2
2018-08-04T07:16:05.889Z,33.2
2018-08-04T07:17:07.510Z,32.7
2018-08-04T07:18:09.148Z,32.3
2018-08-04T07:19:10.781Z,32.3
2018-08-04T07:20:12.387Z,32.7
2018-08-04T07:21:13.995Z,32.3
2018-08-04T07:22:15.590Z,32.7
2018-08-04T07:23:17.018Z,32.3
2018-08-04T07:24:18.308Z,33.2
2018-08-04T07:25:19.932Z,32.7
2018-08-04T07:26:21.377Z,32.7
2018-08-04T07:27:22.806Z,32.3
2018-08-04T07:28:24.487Z,32.3
2018-08-04T07:29:26.094Z,32.7
2018-08-04T07:30:27.538Z,32.3
2018-08-04T07:31:28.989Z,32.7
2018-08-04T07:32:30.257Z,33.2
2018-08-04T07:33:31.876Z,32.7
2018-08-04T07:34:33.491Z,32.7
2018-08-04T07:35:35.097Z,31.8
2018-08-04T07:36:36.834Z,32.3
2018-08-04T07:37:38.136Z,32.7
2018-08-04T07:38:39.722Z,32.7
2018-08-04T07:39:40.834Z,32.7
2018-08-04T07:40:42.132Z,32.3
2018-08-04T07:41:43.782Z,32.7
2018-08-04T07:42:45.424Z,32.3
2018-08-04T07:43:47.031Z,32.3
2018-08-04T07:44:48.474Z,32.3
2018-08-04T07:45:50.084Z,32.3
2018-08-04T07:46:51.414Z,32.7
2018-08-04T07:47:52.688Z,32.7
2018-08-04T07:48:54.308Z,32.3
2018-08-04T07:49:55.933Z,32.7
2018-08-04T07:50:57.382Z,32.3
2018-08-04T07:51:58.839Z,32.7
2018-08-04T07:53:00.431Z,32.3
2018-08-04T07:54:02.068Z,32.3
2018-08-04T07:55:03.671Z,32.7
2018-08-04T07:56:05.149Z,31.8
2018-08-04T07:57:06.793Z,32.3
2018-08-04T07:58:08.265Z,32.7
2018-08-04T07:59:09.866Z,32.7
2018-08-04T08:00:11.477Z,32.3
2018-08-04T08:01:12.933Z,32.7
2018-08-04T08:02:14.545Z,33.2
2018-08-04T08:03:16.001Z,32.7
2018-08-04T08:04:17.284Z,32.7
2018-08-04T08:05:18.588Z,33.2
2018-08-04T08:06:20.314Z,33.7
2018-08-04T08:07:21.987Z,32.7
2018-08-04T08:08:23.676Z,33.2
2018-08-04T08:09:25.235Z,33.2
2018-08-04T08:10:27.177Z,32.7
2018-08-04T08:11:29.261Z,33.2
2018-08-04T08:12:30.716Z,33.7
2018-08-04T08:13:32.164Z,33.7
2018-08-04T08:14:33.616Z,33.2
2018-08-04T08:15:35.231Z,33.2
2018-08-04T08:16:36.837Z,33.2
2018-08-04T08:17:38.446Z,33.7
2018-08-04T08:18:40.077Z,33.7
2018-08-04T08:19:41.540Z,33.2
2018-08-04T08:20:42.640Z,33.2
2018-08-04T08:21:44.078Z,33.7
2018-08-04T08:22:45.680Z,33.7
2018-08-04T08:23:46.942Z,33.7
2018-08-04T08:24:48.794Z,33.7
2018-08-04T08:25:50.440Z,33.7
2018-08-04T08:26:52.052Z,33.2
2018-08-04T08:27:53.489Z,33.2
2018-08-04T08:28:55.093Z,33.2
2018-08-04T08:29:56.723Z,33.7
2018-08-04T08:30:58.330Z,32.7
2018-08-04T08:31:59.935Z,33.2
2018-08-04T08:33:01.397Z,33.7
2018-08-04T08:34:02.677Z,33.7
2018-08-04T08:35:04.301Z,34.2
2018-08-04T08:36:05.733Z,34.2
2018-08-04T08:37:07.391Z,33.2
2018-08-04T08:38:09.027Z,33.2
2018-08-04T08:39:10.463Z,33.7
2018-08-04T08:40:12.073Z,33.7
2018-08-04T08:41:13.685Z,34.2
2018-08-04T08:42:15.346Z,33.2
2018-08-04T08:43:16.950Z,33.2
2018-08-04T08:44:18.421Z,33.2
2018-08-04T08:45:20.027Z,33.2
2018-08-04T08:46:21.657Z,33.7
2018-08-04T08:47:23.097Z,33.7
2018-08-04T08:48:24.705Z,33.2
2018-08-04T08:49:26.332Z,33.2
2018-08-04T08:50:27.982Z,32.7
2018-08-04T08:51:29.422Z,34.2
2018-08-04T08:52:30.704Z,33.7
2018-08-04T08:53:34.183Z,33.2
2018-08-04T08:54:36.277Z,33.2
2018-08-04T08:55:37.886Z,33.2
2018-08-04T08:56:39.504Z,33.2
2018-08-04T08:57:40.972Z,33.2
2018-08-04T08:58:42.574Z,33.2
2018-08-04T08:59:44.194Z,33.2
2018-08-04T09:00:45.531Z,32.7
2018-08-04T09:01:47.177Z,32.7
2018-08-04T09:02:48.630Z,33.2
2018-08-04T09:03:50.237Z,33.7
2018-08-04T09:04:51.859Z,33.2
2018-08-04T09:05:53.484Z,33.7
2018-08-04T09:06:55.084Z,33.2
2018-08-04T09:07:56.702Z,33.7
2018-08-04T09:08:58.174Z,32.7
2018-08-04T09:09:59.767Z,32.3
2018-08-04T09:11:01.209Z,32.7
2018-08-04T09:12:02.849Z,32.7
2018-08-04T09:13:04.299Z,33.2
2018-08-04T09:14:05.910Z,33.2
2018-08-04T09:15:07.512Z,33.2
2018-08-04T09:16:09.097Z,32.7
2018-08-04T09:17:10.736Z,33.2
2018-08-04T09:18:12.347Z,32.7
2018-08-04T09:19:14.017Z,33.2
2018-08-04T09:20:15.712Z,32.7
2018-08-04T09:21:17.386Z,33.2
2018-08-04T09:22:18.859Z,32.7
2018-08-04T09:23:20.136Z,32.7
2018-08-04T09:24:21.591Z,32.7
2018-08-04T09:25:23.036Z,32.7
2018-08-04T09:26:24.679Z,32.7
2018-08-04T09:27:26.300Z,32.7
2018-08-04T09:28:27.735Z,32.7
2018-08-04T09:29:29.022Z,32.7
2018-08-04T09:30:30.126Z,32.3
2018-08-04T09:31:31.582Z,32.7
2018-08-04T09:32:33.207Z,33.2
2018-08-04T09:33:34.818Z,32.3
2018-08-04T09:34:36.423Z,32.3
2018-08-04T09:35:37.927Z,32.7
2018-08-04T09:36:39.591Z,32.3
2018-08-04T09:37:41.255Z,32.3
2018-08-04T09:38:42.689Z,33.2
2018-08-04T09:39:44.327Z,32.7
2018-08-04T09:40:45.809Z,32.3
2018-08-04T09:41:47.420Z,32.7
2018-08-04T09:42:48.853Z,32.3
2018-08-04T09:43:50.489Z,33.2
2018-08-04T09:44:51.785Z,33.2
2018-08-04T09:45:53.393Z,32.7
2018-08-04T09:46:54.832Z,32.3
2018-08-04T09:47:56.465Z,33.2
2018-08-04T09:48:57.947Z,32.7
2018-08-04T09:49:59.390Z,32.7
2018-08-04T09:51:01.133Z,33.7
2018-08-04T09:52:02.788Z,33.2
2018-08-04T09:53:04.398Z,33.2
2018-08-04T09:54:06.017Z,33.2
2018-08-04T09:55:07.619Z,32.7
2018-08-04T09:56:09.225Z,33.2
2018-08-04T09:57:10.678Z,33.2
2018-08-04T09:58:12.344Z,32.7
2018-08-04T09:59:13.981Z,33.2
2018-08-04T10:00:15.598Z,33.2
2018-08-04T10:01:17.207Z,33.7
2018-08-04T10:02:18.826Z,33.7
2018-08-04T10:03:20.423Z,33.7
2018-08-04T10:04:22.024Z,33.7
2018-08-04T10:05:23.725Z,33.7
2018-08-04T10:06:25.353Z,34.2
2018-08-04T10:07:26.958Z,33.7
2018-08-04T10:08:28.091Z,33.2
2018-08-04T10:09:29.696Z,33.2
2018-08-04T10:10:31.151Z,34.2
2018-08-04T10:11:32.594Z,33.2
2018-08-04T10:12:34.276Z,33.7
2018-08-04T10:13:35.748Z,33.7
2018-08-04T10:14:37.364Z,34.2
2018-08-04T10:15:38.829Z,33.2
2018-08-04T10:16:40.264Z,34.2
2018-08-04T10:17:41.861Z,34.2
2018-08-04T10:18:43.473Z,33.2
2018-08-04T10:19:44.917Z,34.2
2018-08-04T10:20:46.351Z,33.2
2018-08-04T10:21:47.988Z,33.7
2018-08-04T10:22:49.586Z,33.2
2018-08-04T10:23:51.195Z,33.7
2018-08-04T10:24:52.796Z,33.2
2018-08-04T10:25:54.595Z,33.2
2018-08-04T10:26:56.045Z,33.7
2018-08-04T10:27:57.505Z,33.7
2018-08-04T10:28:58.953Z,33.7
2018-08-04T10:30:00.422Z,33.2
2018-08-04T10:31:02.045Z,33.7
2018-08-04T10:32:04.356Z,34.2
2018-08-04T10:33:06.336Z,33.7
2018-08-04T10:34:07.959Z,33.2
2018-08-04T10:35:09.591Z,34.2
2018-08-04T10:36:11.061Z,33.2
2018-08-04T10:37:12.546Z,33.2
2018-08-04T10:38:14.218Z,33.2
2018-08-04T10:39:15.843Z,33.7
2018-08-04T10:40:17.458Z,33.2
2018-08-04T10:41:18.743Z,33.2
2018-08-04T10:42:20.239Z,33.7
2018-08-04T10:43:21.524Z,33.7
2018-08-04T10:44:23.136Z,34.2
2018-08-04T10:45:24.590Z,33.2
2018-08-04T10:46:26.297Z,33.7
2018-08-04T10:47:27.996Z,33.2
2018-08-04T10:48:29.643Z,33.2
2018-08-04T10:49:31.731Z,33.7
2018-08-04T10:50:33.472Z,33.2
2018-08-04T10:51:34.933Z,33.7
2018-08-04T10:52:36.399Z,33.7
2018-08-04T10:53:37.821Z,33.2
2018-08-04T10:54:39.486Z,33.2
2018-08-04T10:55:41.124Z,33.2
2018-08-04T10:56:42.734Z,32.7
2018-08-04T10:57:44.364Z,33.2
2018-08-04T10:58:45.974Z,33.7
2018-08-04T10:59:47.580Z,33.2
2018-08-04T11:00:49.183Z,32.3
2018-08-04T11:01:50.648Z,33.2
2018-08-04T11:02:52.267Z,33.2
2018-08-04T11:03:54.024Z,33.2
2018-08-04T11:04:55.593Z,33.2
2018-08-04T11:05:57.195Z,32.3
2018-08-04T11:06:58.796Z,33.2
2018-08-04T11:08:00.396Z,32.7
2018-08-04T11:09:02.004Z,33.2
2018-08-04T11:10:03.439Z,33.2
2018-08-04T11:11:05.063Z,33.2
2018-08-04T11:12:06.662Z,32.3
2018-08-04T11:13:08.202Z,33.2
2018-08-04T11:14:09.826Z,32.7
2018-08-04T11:15:11.454Z,33.2
2018-08-04T11:16:12.887Z,33.2
2018-08-04T11:17:14.325Z,32.7
2018-08-04T11:18:16.420Z,33.2
2018-08-04T11:19:17.877Z,32.7
2018-08-04T11:20:19.360Z,33.2
2018-08-04T11:21:20.969Z,32.3
2018-08-04T11:22:22.116Z,32.7
2018-08-04T11:23:23.731Z,32.3
2018-08-04T11:24:25.380Z,33.7
2018-08-04T11:25:26.828Z,32.7
2018-08-04T11:26:28.255Z,32.7
2018-08-04T11:27:29.703Z,32.7
2018-08-04T11:28:31.164Z,33.2
2018-08-04T11:29:32.889Z,32.7
2018-08-04T11:30:34.334Z,33.2
2018-08-04T11:31:35.438Z,33.2
2018-08-04T11:32:36.911Z,31.8
2018-08-04T11:33:38.506Z,32.7
2018-08-04T11:34:39.947Z,33.2
2018-08-04T11:35:41.559Z,32.7
2018-08-04T11:36:43.162Z,32.7
2018-08-04T11:37:44.867Z,32.7
2018-08-04T11:38:46.666Z,32.7
2018-08-04T11:39:48.290Z,33.2
2018-08-04T11:40:49.922Z,33.2
2018-08-04T11:41:51.535Z,33.7
2018-08-04T11:42:53.147Z,33.2
2018-08-04T11:43:54.410Z,33.2
2018-08-04T11:44:55.830Z,33.2
2018-08-04T11:45:57.267Z,32.7
2018-08-04T11:46:58.887Z,33.7
2018-08-04T11:48:00.181Z,33.7
2018-08-04T11:49:01.991Z,33.7
2018-08-04T11:50:03.615Z,33.2
2018-08-04T11:51:05.071Z,33.7
2018-08-04T11:52:06.521Z,34.2
2018-08-04T11:53:08.121Z,34.2
2018-08-04T11:54:09.557Z,33.7
2018-08-04T11:55:11.191Z,33.7
2018-08-04T11:56:12.785Z,33.7
2018-08-04T11:57:14.402Z,33.7
2018-08-04T11:58:15.992Z,34.2
2018-08-04T11:59:17.468Z,34.2
2018-08-04T12:00:18.936Z,33.7
2018-08-04T12:01:20.212Z,33.7
2018-08-04T12:02:21.804Z,33.7
2018-08-04T12:03:23.420Z,33.7
2018-08-04T12:04:25.027Z,33.7
2018-08-04T12:05:26.950Z,33.7
2018-08-04T12:06:28.689Z,33.7
2018-08-04T12:07:30.381Z,34.2
2018-08-04T12:08:32.007Z,33.7
2018-08-04T12:09:33.613Z,34.2
2018-08-04T12:10:35.063Z,33.7
2018-08-04T12:11:36.350Z,34.2
2018-08-04T12:12:37.937Z,33.2
2018-08-04T12:13:39.542Z,34.2
2018-08-04T12:14:41.158Z,33.7
2018-08-04T12:15:42.612Z,33.7
2018-08-04T12:16:44.055Z,33.7
2018-08-04T12:17:45.338Z,33.7
2018-08-04T12:18:46.768Z,34.2
2018-08-04T12:19:48.229Z,33.2
2018-08-04T12:20:49.684Z,33.2
2018-08-04T12:21:51.137Z,33.2
2018-08-04T12:22:52.733Z,33.7
2018-08-04T12:23:54.172Z,33.7
2018-08-04T12:24:55.788Z,33.7
2018-08-04T12:25:57.214Z,33.7
2018-08-04T12:26:58.648Z,33.7
2018-08-04T12:28:00.284Z,33.7
2018-08-04T12:29:01.910Z,33.2
2018-08-04T12:30:03.567Z,33.7
2018-08-04T12:31:05.022Z,33.7
2018-08-04T12:32:06.671Z,33.7
2018-08-04T12:33:08.292Z,33.2
2018-08-04T12:34:09.792Z,33.2
2018-08-04T12:35:11.238Z,33.2
2018-08-04T12:36:12.855Z,33.2
2018-08-04T12:37:14.303Z,33.7
2018-08-04T12:38:15.946Z,33.7
2018-08-04T12:39:17.565Z,33.2
2018-08-04T12:40:19.179Z,33.7
2018-08-04T12:41:20.637Z,33.2
2018-08-04T12:42:22.272Z,33.7
2018-08-04T12:43:23.735Z,33.2
2018-08-04T12:44:25.347Z,33.7
2018-08-04T12:45:27.076Z,33.7
2018-08-04T12:46:28.728Z,33.2
2018-08-04T12:47:30.343Z,33.2
2018-08-04T12:48:31.821Z,33.7
2018-08-04T12:49:33.459Z,34.2
2018-08-04T12:50:35.067Z,34.2
2018-08-04T12:51:36.668Z,33.2
2018-08-04T12:52:38.280Z,33.2
2018-08-04T12:53:39.877Z,33.7
2018-08-04T12:54:41.506Z,32.7
2018-08-04T12:55:43.125Z,33.2
2018-08-04T12:56:44.731Z,33.7
2018-08-04T12:57:46.019Z,33.2
2018-08-04T12:58:47.460Z,33.2
2018-08-04T12:59:48.905Z,32.7
2018-08-04T13:00:50.516Z,32.7
2018-08-04T13:01:51.971Z,33.2
2018-08-04T13:02:53.564Z,33.2
2018-08-04T13:03:55.187Z,32.7
2018-08-04T13:04:56.662Z,32.7
2018-08-04T13:05:58.271Z,32.7
2018-08-04T13:06:59.874Z,33.2
2018-08-04T13:08:01.483Z,33.2
2018-08-04T13:09:03.136Z,32.7
2018-08-04T13:10:04.753Z,33.2
2018-08-04T13:11:06.204Z,32.7
2018-08-04T13:12:07.793Z,32.7
2018-08-04T13:13:09.393Z,33.2
2018-08-04T13:14:10.993Z,32.7
2018-08-04T13:15:12.608Z,33.2
2018-08-04T13:16:14.043Z,33.2
2018-08-04T13:17:15.647Z,33.2
2018-08-04T13:18:16.969Z,33.2
2018-08-04T13:19:18.577Z,33.2
2018-08-04T13:20:20.233Z,32.7
2018-08-04T13:21:21.838Z,33.2
2018-08-04T13:22:23.452Z,32.7
2018-08-04T13:23:25.061Z,33.2
2018-08-04T13:24:26.542Z,33.2
2018-08-04T13:25:27.825Z,32.7
2018-08-04T13:26:29.267Z,32.7
2018-08-04T13:27:30.917Z,32.7
2018-08-04T13:28:32.023Z,32.7
2018-08-04T13:29:33.756Z,32.7
2018-08-04T13:30:35.424Z,32.7
2018-08-04T13:31:37.048Z,33.7
2018-08-04T13:32:38.494Z,33.2
2018-08-04T13:33:39.943Z,32.7
2018-08-04T13:34:41.393Z,33.2
2018-08-04T13:35:42.992Z,33.7
2018-08-04T13:36:44.441Z,33.2
2018-08-04T13:37:46.053Z,33.7
2018-08-04T13:38:47.859Z,32.7